createdAt,value
2018-11-22T12:18:24.453Z,95562.24
2018-11-22T12:23:29.259Z,95556.80
2018-11-22T12:25:58.332Z,95563.91
2018-11-22T12:31:06.532Z,95560.98
2018-11-22T12:33:32.172Z,95559.88
2018-11-22T12:36:01.258Z,95568.28
2018-11-22T12:38:32.186Z,95561.34
2018-11-22T12:41:01.260Z,95556.61
2018-11-22T12:43:31.302Z,95559.70
2018-11-22T12:46:00.373Z,95552.39
2018-11-22T12:48:29.422Z,95547.38
2018-11-22T12:50:58.486Z,95549.91
2018-11-22T12:53:27.568Z,95549.77
2018-11-22T12:55:56.625Z,95550.94
2018-11-22T12:58:25.689Z,95548.52
2018-11-22T13:00:54.755Z,95550.13
2018-11-22T13:03:24.732Z,95557.33
2018-11-22T13:11:05.380Z,95559.28
2018-11-22T13:13:34.444Z,95558.13
2018-11-22T13:18:39.383Z,95562.49
2018-11-22T13:21:08.435Z,95555.59
2018-11-22T13:23:37.491Z,95556.75
2018-11-22T13:26:06.558Z,95559.52
2018-11-22T13:28:36.601Z,95557.58
2018-11-22T13:31:05.646Z,95561.13
2018-11-22T13:36:11.449Z,95560.14
2018-11-22T13:38:40.517Z,95568.62
2018-11-22T13:41:09.584Z,95570.55
2018-11-22T13:43:38.722Z,95569.30
2018-11-22T13:46:07.778Z,95562.46
2018-11-22T13:48:36.845Z,95566.64
2018-11-22T13:51:05.898Z,95567.30
2018-11-22T13:53:35.899Z,95562.11
2018-11-22T13:56:04.958Z,95562.81
2018-11-22T13:58:34.026Z,95564.51
2018-11-22T14:01:03.091Z,95570.13
2018-11-22T14:03:32.129Z,95568.45
2018-11-22T14:06:01.200Z,95572.30
2018-11-22T14:08:30.251Z,95578.34
2018-11-22T14:10:59.404Z,95582.81
2018-11-22T14:13:28.473Z,95583.33
2018-11-22T14:15:59.578Z,95586.08
2018-11-22T14:18:28.657Z,95588.59
2018-11-22T14:20:57.695Z,95590.00
2018-11-22T14:23:26.753Z,95589.86
2018-11-22T14:25:55.828Z,95587.86
2018-11-22T14:28:24.882Z,95589.20
2018-11-22T14:33:29.702Z,95587.80
2018-11-22T14:35:58.780Z,95588.87
2018-11-22T14:38:27.836Z,95591.23
2018-11-22T14:40:56.895Z,95594.67
2018-11-22T14:43:25.986Z,95596.40
2018-11-22T14:45:55.048Z,95599.59
2018-11-22T14:48:26.006Z,95596.84
2018-11-22T14:50:55.078Z,95594.42
2018-11-22T14:56:01.519Z,95595.52
2018-11-22T14:58:30.552Z,95600.61
2018-11-22T15:00:59.601Z,95598.92
2018-11-22T15:03:28.641Z,95598.83
2018-11-22T15:05:57.680Z,95597.94
2018-11-22T15:08:26.727Z,95603.40
2018-11-22T15:10:55.779Z,95605.18
2018-11-22T15:13:24.842Z,95601.77
2018-11-22T15:15:54.038Z,95604.80
2018-11-22T15:18:23.104Z,95604.43
2018-11-22T15:20:52.139Z,95603.61
2018-11-22T15:25:58.875Z,95611.91
2018-11-22T15:31:03.803Z,95611.55
2018-11-22T15:33:34.773Z,95621.45
2018-11-22T15:36:03.826Z,95625.48
2018-11-22T15:38:32.874Z,95624.67
2018-11-22T15:41:01.913Z,95621.52
2018-11-22T15:43:31.004Z,95623.41
2018-11-22T15:46:00.044Z,95628.72
2018-11-22T15:48:30.097Z,95633.88
2018-11-22T15:50:59.122Z,95630.46
2018-11-22T15:53:28.199Z,95630.28
2018-11-22T15:55:57.238Z,95635.03
2018-11-22T16:01:01.990Z,95636.97
2018-11-22T16:03:31.035Z,95641.50
2018-11-22T16:06:00.080Z,95647.33
2018-11-22T16:08:29.138Z,95647.92
2018-11-22T16:10:58.192Z,95652.11
2018-11-22T16:16:02.915Z,95662.83
2018-11-22T16:18:31.966Z,95659.92
2018-11-22T16:21:01.021Z,95657.25
2018-11-22T16:23:30.066Z,95651.95
2018-11-22T16:25:59.119Z,95653.55
2018-11-22T16:28:28.166Z,95651.32
2018-11-22T16:33:32.962Z,95653.52
2018-11-22T16:36:02.009Z,95656.36
2018-11-22T16:38:32.316Z,95654.42
2018-11-22T16:43:36.839Z,95655.15
2018-11-22T16:46:05.912Z,95651.00
2018-11-22T16:48:34.966Z,95653.62
2018-11-22T16:51:04.018Z,95652.24
2018-11-22T16:53:33.192Z,95660.15
2018-11-22T16:56:02.283Z,95660.83
2018-11-22T16:58:31.310Z,95665.11
2018-11-22T17:01:00.369Z,95669.67
2018-11-22T17:03:29.402Z,95670.95
2018-11-22T17:05:58.466Z,95669.84
2018-11-22T17:08:28.553Z,95667.61
2018-11-22T17:10:57.622Z,95670.16
2018-11-22T17:13:26.678Z,95672.94
2018-11-22T17:15:57.625Z,95678.89
2018-11-22T17:18:26.858Z,95676.66
2018-11-22T17:23:31.634Z,95669.73
2018-11-22T17:26:00.689Z,95673.10
2018-11-22T17:28:29.734Z,95683.84
2018-11-22T17:30:58.773Z,95678.56
2018-11-22T17:33:27.810Z,95676.63
2018-11-22T17:35:57.455Z,95673.93
2018-11-22T17:38:26.524Z,95677.86
2018-11-22T17:40:55.551Z,95675.89
2018-11-22T17:43:24.603Z,95676.06
2018-11-22T17:48:30.374Z,95680.31
2018-11-22T17:50:59.411Z,95675.78
2018-11-22T17:53:29.387Z,95673.05
2018-11-22T17:55:58.459Z,95676.42
2018-11-22T17:58:27.488Z,95678.56
2018-11-22T18:00:56.546Z,95680.66
2018-11-22T18:03:27.542Z,95681.22
2018-11-22T18:05:56.586Z,95684.08
2018-11-22T18:08:26.549Z,95685.67
2018-11-22T18:13:31.330Z,95682.91
2018-11-22T18:16:00.453Z,95682.25
2018-11-22T18:18:29.515Z,95682.33
2018-11-22T18:20:58.557Z,95684.72
2018-11-22T18:23:27.609Z,95689.48
2018-11-22T18:28:32.386Z,95689.08
2018-11-22T18:31:01.442Z,95690.06
2018-11-22T18:33:30.623Z,95691.20
2018-11-22T18:35:59.689Z,95688.03
2018-11-22T18:38:28.747Z,95689.36
2018-11-22T18:43:35.390Z,95687.19
2018-11-22T18:46:02.621Z,95689.77
2018-11-22T18:48:36.044Z,95689.67
2018-11-22T18:51:05.097Z,95689.03
2018-11-22T18:56:09.886Z,95689.42
2018-11-22T18:58:38.942Z,95684.84
2018-11-22T19:01:07.996Z,95688.70
2018-11-22T19:03:37.054Z,95692.12
2018-11-22T19:06:06.116Z,95691.86
2018-11-22T19:08:36.085Z,95698.32
2018-11-22T19:11:05.179Z,95702.52
2018-11-22T19:13:34.232Z,95705.90
2018-11-22T19:16:03.292Z,95707.75
2018-11-22T19:18:32.354Z,95706.30
2018-11-22T19:21:01.406Z,95715.31
2018-11-22T19:23:30.463Z,95711.86
2018-11-22T19:25:59.531Z,95713.89
2018-11-22T19:28:28.581Z,95711.96
2018-11-22T19:30:57.642Z,95710.90
2018-11-22T19:33:26.702Z,95708.17
2018-11-22T19:35:55.769Z,95712.25
2018-11-22T19:38:24.846Z,95718.86
2018-11-22T19:43:30.619Z,95713.49
2018-11-22T19:45:59.666Z,95713.77
2018-11-22T19:48:28.721Z,95710.06
2018-11-22T19:53:47.260Z,95709.47
2018-11-22T19:56:16.962Z,95709.50
2018-11-22T19:58:46.114Z,95708.09
2018-11-22T20:01:15.179Z,95711.83
2018-11-22T20:03:44.231Z,95714.75
2018-11-22T20:06:13.293Z,95712.31
2018-11-22T20:11:18.109Z,95711.61
2018-11-22T20:16:22.849Z,95710.37
2018-11-22T20:18:51.896Z,95713.81
2018-11-22T20:21:21.056Z,95713.06
2018-11-22T20:23:51.123Z,95714.84
2018-11-22T20:26:32.950Z,95714.89
2018-11-22T20:29:02.652Z,95721.11
2018-11-22T20:31:45.764Z,95716.90
2018-11-22T20:34:15.598Z,95714.59
2018-11-22T20:36:44.663Z,95710.98
2018-11-22T20:39:13.735Z,95714.50
2018-11-22T20:41:42.776Z,95708.88
2018-11-22T20:44:11.860Z,95718.06
2018-11-22T20:46:46.060Z,95717.37
2018-11-22T20:49:15.431Z,95714.70
2018-11-22T20:51:45.497Z,95714.70
2018-11-22T20:54:14.546Z,95711.66
2018-11-22T20:56:44.514Z,95708.08
2018-11-22T20:59:13.564Z,95706.43
2018-11-22T21:01:42.618Z,95706.91
2018-11-22T21:04:11.652Z,95705.77
2018-11-22T21:06:40.728Z,95706.53
2018-11-22T21:09:09.763Z,95709.87
2018-11-22T21:14:14.552Z,95707.25
2018-11-22T21:16:43.638Z,95705.85
2018-11-22T21:19:12.719Z,95706.17
2018-11-22T21:21:41.761Z,95710.20
2018-11-22T21:24:10.831Z,95710.95
2018-11-22T21:26:39.867Z,95712.40
2018-11-22T21:29:09.077Z,95714.11
2018-11-22T21:31:39.444Z,95719.63
2018-11-22T21:34:08.639Z,95717.77
2018-11-22T21:36:37.692Z,95714.17
2018-11-22T21:39:06.748Z,95714.72
2018-11-22T21:41:36.708Z,95705.20
2018-11-22T21:44:05.755Z,95700.25
2018-11-22T21:49:10.498Z,95706.74
2018-11-22T21:51:39.678Z,95712.06
2018-11-22T21:54:08.625Z,95706.65
2018-11-22T21:56:37.678Z,95705.17
2018-11-22T21:59:06.942Z,95710.67
2018-11-22T22:04:12.732Z,95715.91
2018-11-22T22:06:41.807Z,95723.64
2018-11-22T22:11:46.731Z,95718.17
2018-11-22T22:16:51.476Z,95723.61
2018-11-22T22:19:20.566Z,95731.39
2018-11-22T22:21:49.633Z,95731.66
2018-11-22T22:24:19.695Z,95732.83
2018-11-22T22:26:48.743Z,95735.70
2018-11-22T22:29:17.795Z,95730.69
2018-11-22T22:31:46.846Z,95731.43
2018-11-22T22:34:15.904Z,95729.00
2018-11-22T22:36:44.960Z,95734.08
2018-11-22T22:39:14.014Z,95730.82
2018-11-22T22:41:43.052Z,95743.59
2018-11-22T22:44:12.104Z,95740.44
2018-11-22T22:46:41.160Z,95739.72
2018-11-22T22:49:10.215Z,95739.48
2018-11-22T22:51:39.296Z,95741.58
2018-11-22T22:54:08.349Z,95745.66
2018-11-22T22:56:37.402Z,95746.65
2018-11-22T22:59:06.452Z,95749.20
2018-11-22T23:01:48.663Z,95748.81
2018-11-22T23:04:18.181Z,95741.91
2018-11-22T23:06:47.259Z,95746.28
2018-11-22T23:09:22.847Z,95749.27
2018-11-22T23:11:51.913Z,95750.14
2018-11-22T23:14:20.949Z,95751.25
2018-11-22T23:16:50.014Z,95750.01
2018-11-22T23:19:19.071Z,95753.23
2018-11-22T23:21:48.269Z,95748.84
2018-11-22T23:24:17.389Z,95750.70
2018-11-22T23:26:46.422Z,95750.41
2018-11-22T23:29:15.563Z,95748.63
2018-11-22T23:31:44.649Z,95746.05
2018-11-22T23:34:13.694Z,95753.28
2018-11-22T23:36:42.771Z,95759.40
2018-11-22T23:39:11.830Z,95753.34
2018-11-22T23:41:41.895Z,95748.28
2018-11-22T23:44:10.936Z,95745.52
2018-11-22T23:46:39.999Z,95748.63
2018-11-22T23:49:09.038Z,95750.87
2018-11-22T23:51:38.095Z,95754.14
2018-11-22T23:54:07.160Z,95752.02
2018-11-22T23:56:37.109Z,95752.47
2018-11-22T23:59:06.180Z,95752.69
